Aviation Digital Data Service (ADDS)

Output produced by METARs form (1552 UTC 24 September 2017)
found at http://www.aviationweather.gov/adds/metars/
 
KESN 241545Z 04005KT 10SM SCT150 30/17 A3011